createdAt,value
2022-09-23T00:03:21.638Z,7.18
2022-09-23T00:06:24.935Z,7.24
2022-09-23T00:09:27.275Z,7.28
2022-09-23T00:12:29.859Z,7.37
2022-09-23T00:15:34.093Z,7.39
2022-09-23T00:18:36.783Z,7.40
2022-09-23T00:21:39.079Z,7.44
2022-09-23T00:24:41.588Z,7.38
2022-09-23T00:27:43.838Z,7.31
2022-09-23T00:30:46.447Z,7.18
2022-09-23T00:33:53.160Z,7.14
2022-09-23T00:36:56.965Z,7.05
2022-09-23T00:40:00.822Z,6.98
2022-09-23T00:43:03.731Z,6.95
2022-09-23T00:46:07.252Z,6.88
2022-09-23T00:49:12.783Z,6.80
2022-09-23T00:52:18.132Z,6.78
2022-09-23T00:55:26.872Z,6.75
2022-09-23T00:58:31.835Z,6.65
2022-09-23T01:01:34.472Z,6.58
2022-09-23T01:04:36.794Z,6.58
2022-09-23T01:07:39.642Z,6.55
2022-09-23T01:10:45.639Z,6.53
2022-09-23T01:13:50.893Z,6.51
2022-09-23T01:16:56.180Z,6.45
2022-09-23T01:20:05.748Z,6.36
2022-09-23T01:23:17.551Z,6.34
2022-09-23T01:26:30.388Z,6.32
2022-09-23T01:29:43.954Z,6.31
2022-09-23T01:32:56.876Z,6.33
2022-09-23T01:36:19.047Z,6.25
2022-09-23T01:39:33.836Z,6.24
2022-09-23T01:42:39.617Z,6.29
2022-09-23T01:45:44.870Z,6.20
2022-09-23T01:48:53.947Z,6.11
2022-09-23T01:52:06.077Z,6.10
2022-09-23T01:55:12.779Z,6.07
2022-09-23T01:58:23.189Z,6.06
2022-09-23T02:01:32.340Z,6.08
2022-09-23T02:04:45.781Z,6.03
2022-09-23T02:07:53.003Z,6.01
2022-09-23T02:10:58.752Z,6.11
2022-09-23T02:14:11.343Z,6.11
2022-09-23T02:17:17.243Z,6.06
2022-09-23T02:20:21.991Z,6.02
2022-09-23T02:23:29.878Z,6.04
2022-09-23T02:26:38.133Z,6.00
2022-09-23T02:29:41.355Z,5.96
2022-09-23T02:32:46.689Z,5.92
2022-09-23T02:35:53.891Z,5.88
2022-09-23T02:38:58.127Z,5.86
2022-09-23T02:42:05.345Z,5.93
2022-09-23T02:45:07.821Z,5.88
2022-09-23T02:48:19.431Z,5.86
2022-09-23T02:51:21.680Z,5.80
2022-09-23T02:54:25.757Z,5.79
2022-09-23T02:57:28.348Z,5.75
2022-09-23T03:00:50.192Z,5.78
2022-09-23T03:03:59.757Z,5.78
2022-09-23T03:07:06.337Z,5.81
2022-09-23T03:10:27.535Z,5.79
2022-09-23T03:13:40.365Z,5.73
2022-09-23T03:16:48.012Z,5.72
2022-09-23T03:20:04.946Z,5.67
2022-09-23T03:23:08.899Z,5.65
2022-09-23T03:26:20.796Z,5.62
2022-09-23T03:29:23.487Z,5.65
2022-09-23T03:32:28.029Z,5.62
2022-09-23T03:35:33.047Z,5.61
2022-09-23T03:38:38.034Z,5.62
2022-09-23T03:41:45.135Z,5.62
2022-09-23T03:44:48.878Z,5.66
2022-09-23T03:47:51.100Z,5.60
2022-09-23T03:50:53.826Z,5.63
2022-09-23T03:53:56.229Z,5.56
2022-09-23T03:56:58.931Z,5.60
2022-09-23T04:00:01.439Z,5.58
2022-09-23T04:03:14.237Z,5.52
2022-09-23T04:06:16.884Z,5.52
2022-09-23T04:09:19.286Z,5.53
2022-09-23T04:12:21.918Z,5.59
2022-09-23T04:15:24.555Z,5.51
2022-09-23T04:18:27.119Z,5.46
2022-09-23T04:21:31.134Z,5.47
2022-09-23T04:24:34.038Z,5.51
2022-09-23T04:27:37.891Z,5.45
2022-09-23T04:30:44.341Z,5.45
2022-09-23T04:33:46.660Z,5.41
2022-09-23T04:36:49.612Z,5.37
2022-09-23T04:39:51.932Z,5.37
2022-09-23T04:42:54.807Z,5.39
2022-09-23T04:46:00.968Z,5.39
2022-09-23T04:49:04.281Z,5.40
2022-09-23T04:52:06.956Z,5.41
2022-09-23T04:55:11.303Z,5.39
2022-09-23T04:58:13.765Z,5.37
2022-09-23T05:01:24.269Z,5.39
2022-09-23T05:04:26.737Z,5.40
2022-09-23T05:07:29.285Z,5.45
2022-09-23T05:10:31.509Z,5.46
2022-09-23T05:13:34.113Z,5.50
2022-09-23T05:16:36.399Z,5.56
2022-09-23T05:19:38.919Z,5.64
2022-09-23T05:22:41.172Z,5.69
2022-09-23T05:25:45.361Z,5.82
2022-09-23T05:28:48.059Z,5.88
2022-09-23T05:31:50.622Z,5.93
2022-09-23T05:34:55.111Z,6.01
2022-09-23T05:37:57.792Z,6.06
2022-09-23T05:41:01.328Z,6.15
2022-09-23T05:44:04.359Z,6.28
2022-09-23T05:47:06.729Z,6.61
2022-09-23T05:50:09.497Z,9.43
2022-09-23T05:53:11.740Z,14.25
2022-09-23T05:56:15.159Z,17.83
2022-09-23T05:59:17.458Z,19.31
2022-09-23T06:02:20.106Z,20.90
2022-09-23T06:05:22.862Z,22.66
2022-09-23T06:08:25.369Z,22.73
2022-09-23T06:11:31.684Z,19.16
2022-09-23T06:14:33.940Z,17.28
2022-09-23T06:17:36.529Z,16.75
2022-09-23T06:20:39.022Z,14.83
2022-09-23T06:23:42.270Z,13.59
2022-09-23T06:26:45.023Z,12.61
2022-09-23T06:29:47.611Z,12.17
2022-09-23T06:32:52.067Z,12.16
2022-09-23T06:35:59.949Z,12.34
2022-09-23T06:39:02.405Z,11.75
2022-09-23T06:42:06.384Z,11.29
2022-09-23T06:45:11.831Z,11.29
2022-09-23T06:48:14.419Z,11.07
2022-09-23T06:51:19.453Z,11.13
2022-09-23T06:54:22.146Z,11.24
2022-09-23T06:57:24.457Z,11.10
2022-09-23T07:00:27.044Z,10.96
2022-09-23T07:03:29.645Z,11.12
2022-09-23T07:06:32.257Z,11.28
2022-09-23T07:09:34.509Z,11.37
2022-09-23T07:12:37.187Z,11.45
2022-09-23T07:15:39.443Z,11.69
2022-09-23T07:18:42.711Z,11.87
2022-09-23T07:21:44.952Z,11.77
2022-09-23T07:24:47.649Z,11.84
2022-09-23T07:27:50.150Z,12.02
2022-09-23T07:31:00.121Z,12.09
2022-09-23T07:34:03.000Z,12.29
2022-09-23T07:37:05.600Z,12.46
2022-09-23T07:40:08.427Z,12.48
2022-09-23T07:43:11.051Z,12.62
2022-09-23T07:46:16.450Z,12.76
2022-09-23T07:49:19.324Z,12.96
2022-09-23T07:52:21.651Z,13.34
2022-09-23T07:55:24.203Z,13.34
2022-09-23T07:58:26.528Z,13.11
2022-09-23T08:01:36.881Z,13.03
2022-09-23T08:04:39.495Z,13.16
2022-09-23T08:07:41.757Z,13.21
2022-09-23T08:10:44.446Z,13.46
2022-09-23T08:13:47.650Z,13.54
2022-09-23T08:16:50.799Z,13.68
2022-09-23T08:19:53.134Z,14.05
2022-09-23T08:22:55.649Z,14.13
2022-09-23T08:26:00.890Z,14.08
2022-09-23T08:29:04.000Z,14.43
2022-09-23T08:32:06.400Z,14.77
2022-09-23T08:35:09.423Z,14.23
2022-09-23T08:38:11.760Z,14.37
2022-09-23T08:41:32.841Z,14.70
2022-09-23T08:44:35.100Z,14.60
2022-09-23T08:47:49.622Z,14.77
2022-09-23T08:50:55.618Z,14.95
2022-09-23T08:53:58.855Z,14.85
2022-09-23T08:57:02.632Z,14.77
2022-09-23T09:00:05.840Z,15.10
2022-09-23T09:03:19.503Z,15.05
2022-09-23T09:06:28.112Z,15.10
2022-09-23T09:09:32.576Z,14.88
2022-09-23T09:12:43.602Z,15.10
2022-09-23T09:15:51.421Z,15.05
2022-09-23T09:18:55.231Z,14.89
2022-09-23T09:21:57.884Z,14.84
2022-09-23T09:25:05.127Z,14.95
2022-09-23T09:28:14.507Z,15.05
2022-09-23T09:31:21.383Z,15.22
2022-09-23T09:34:26.913Z,15.41
2022-09-23T09:37:33.635Z,15.52
2022-09-23T09:40:39.530Z,15.87
2022-09-23T09:43:44.371Z,16.14
2022-09-23T09:47:07.622Z,16.08
2022-09-23T09:50:13.976Z,16.30
2022-09-23T09:53:23.891Z,16.36
2022-09-23T09:56:34.608Z,16.69
2022-09-23T09:59:43.080Z,16.69
2022-09-23T10:02:46.798Z,16.86
2022-09-23T10:05:50.453Z,17.15
2022-09-23T10:09:02.108Z,17.39
2022-09-23T10:12:10.805Z,17.43
2022-09-23T10:15:28.459Z,17.08
2022-09-23T10:18:39.102Z,17.11
2022-09-23T10:21:42.302Z,17.15
2022-09-23T10:24:48.333Z,17.31
2022-09-23T10:27:50.737Z,17.12
2022-09-23T10:31:08.768Z,17.46
2022-09-23T10:34:41.483Z,17.49
2022-09-23T10:37:51.741Z,16.76
2022-09-23T10:41:13.310Z,16.79
2022-09-23T10:44:46.977Z,17.04
2022-09-23T10:48:03.181Z,17.57
2022-09-23T10:51:14.495Z,18.02
2022-09-23T10:54:35.757Z,18.31
2022-09-23T10:57:47.293Z,18.02
2022-09-23T11:00:51.323Z,17.95
2022-09-23T11:03:54.319Z,18.41
2022-09-23T11:07:07.390Z,18.44
2022-09-23T11:10:48.402Z,17.90
2022-09-23T11:13:56.692Z,18.06
2022-09-23T11:17:05.843Z,18.06
2022-09-23T11:20:40.992Z,18.16
2022-09-23T11:23:50.220Z,18.60
2022-09-23T11:27:16.808Z,18.86
2022-09-23T11:30:23.015Z,18.74
2022-09-23T11:33:40.659Z,18.89
2022-09-23T11:36:52.327Z,18.56
2022-09-23T11:40:01.192Z,19.37
2022-09-23T11:43:15.770Z,19.80
2022-09-23T11:46:24.195Z,20.31
2022-09-23T11:49:30.999Z,20.15
2022-09-23T11:52:36.371Z,20.09
2022-09-23T11:55:57.852Z,20.15
2022-09-23T11:59:13.033Z,19.98
2022-09-23T12:02:30.471Z,19.90
2022-09-23T12:05:47.379Z,19.52
2022-09-23T12:08:59.445Z,19.45
2022-09-23T12:12:25.061Z,19.18
2022-09-23T12:15:48.162Z,19.15
2022-09-23T12:18:51.076Z,18.90
2022-09-23T12:21:56.605Z,18.58
2022-09-23T12:24:59.295Z,18.50
2022-09-23T12:28:12.509Z,18.53
2022-09-23T12:31:19.679Z,18.20
2022-09-23T12:34:29.028Z,18.24
2022-09-23T12:37:38.802Z,18.47
2022-09-23T12:40:44.038Z,18.41
2022-09-23T12:43:55.346Z,18.19
2022-09-23T12:47:25.196Z,18.26
2022-09-23T12:50:46.246Z,18.45
2022-09-23T12:53:50.690Z,18.51
2022-09-23T12:56:54.563Z,18.53
2022-09-23T13:00:11.521Z,18.70
2022-09-23T13:03:32.824Z,19.20
2022-09-23T13:06:56.618Z,19.57
2022-09-23T13:10:19.793Z,19.58
2022-09-23T13:13:29.465Z,19.50
2022-09-23T13:16:50.638Z,19.72
2022-09-23T13:20:04.905Z,20.00
2022-09-23T13:23:27.043Z,19.47
2022-09-23T13:26:31.805Z,19.03
2022-09-23T13:29:51.866Z,18.75
2022-09-23T13:33:11.135Z,18.54
2022-09-23T13:36:14.865Z,18.55
2022-09-23T13:39:22.924Z,18.31
2022-09-23T13:42:28.901Z,18.17
2022-09-23T13:45:33.163Z,17.78
2022-09-23T13:48:35.980Z,17.54
2022-09-23T13:51:38.279Z,17.31
2022-09-23T13:54:49.177Z,17.19
2022-09-23T13:57:58.646Z,17.36
2022-09-23T14:01:01.858Z,17.55
2022-09-23T14:04:04.565Z,17.67
2022-09-23T14:07:07.920Z,17.57
2022-09-23T14:10:17.295Z,17.25
2022-09-23T14:13:31.465Z,17.09
2022-09-23T14:16:36.265Z,16.69
2022-09-23T14:19:38.692Z,16.49
2022-09-23T14:22:41.510Z,16.40
2022-09-23T14:25:46.652Z,16.42
2022-09-23T14:28:49.477Z,16.55
2022-09-23T14:31:56.962Z,16.56
2022-09-23T14:34:59.827Z,16.63
2022-09-23T14:38:34.566Z,16.58
2022-09-23T14:41:39.086Z,16.67
2022-09-23T14:44:41.582Z,16.79
2022-09-23T14:47:46.513Z,17.08
2022-09-23T14:50:51.369Z,17.36
2022-09-23T14:53:53.943Z,17.41
2022-09-23T14:56:56.259Z,17.21
2022-09-23T15:00:00.180Z,17.10
2022-09-23T15:03:03.482Z,17.06
2022-09-23T15:06:09.232Z,17.08
2022-09-23T15:09:19.994Z,16.80
2022-09-23T15:12:22.563Z,16.64
2022-09-23T15:15:28.158Z,16.46
2022-09-23T15:18:34.135Z,16.30
2022-09-23T15:21:41.057Z,16.21
2022-09-23T15:24:45.041Z,16.15
2022-09-23T15:28:07.581Z,16.11
2022-09-23T15:31:13.496Z,16.04
2022-09-23T15:34:15.709Z,16.00
2022-09-23T15:37:18.368Z,16.08
2022-09-23T15:40:23.715Z,16.12
2022-09-23T15:43:27.519Z,16.17
2022-09-23T15:46:30.274Z,16.24
2022-09-23T15:49:36.137Z,16.08
2022-09-23T15:52:39.957Z,15.94
2022-09-23T15:55:42.650Z,15.86
2022-09-23T15:58:44.954Z,15.82
2022-09-23T16:01:47.811Z,15.84
2022-09-23T16:04:51.013Z,15.77
2022-09-23T16:07:53.428Z,15.72
2022-09-23T16:10:56.126Z,15.66
2022-09-23T16:13:59.435Z,15.51
2022-09-23T16:17:03.475Z,15.46
2022-09-23T16:20:06.048Z,15.36
2022-09-23T16:23:14.167Z,15.30
2022-09-23T16:26:17.896Z,15.37
2022-09-23T16:29:20.485Z,15.34
2022-09-23T16:32:24.162Z,15.30
2022-09-23T16:35:27.882Z,15.21
2022-09-23T16:38:30.268Z,15.19
2022-09-23T16:41:32.828Z,15.31
2022-09-23T16:44:35.481Z,15.26
2022-09-23T16:47:47.360Z,15.20
2022-09-23T16:50:49.651Z,15.30
2022-09-23T16:53:53.063Z,15.20
2022-09-23T16:56:55.344Z,15.10
2022-09-23T17:00:16.422Z,15.05
2022-09-23T17:03:37.364Z,14.95
2022-09-23T17:06:50.321Z,14.74
2022-09-23T17:09:52.636Z,14.57
2022-09-23T17:12:55.239Z,14.42
2022-09-23T17:15:57.712Z,14.25
2022-09-23T17:19:06.244Z,14.01
2022-09-23T17:22:09.849Z,13.82
2022-09-23T17:25:12.394Z,13.64
2022-09-23T17:28:14.766Z,13.48
2022-09-23T17:31:19.483Z,13.43
2022-09-23T17:34:21.968Z,13.21
2022-09-23T17:37:24.549Z,13.16
2022-09-23T17:40:27.467Z,13.08
2022-09-23T17:43:32.663Z,12.85
2022-09-23T17:46:34.961Z,12.69
2022-09-23T17:49:37.629Z,12.49
2022-09-23T17:52:40.145Z,12.32
2022-09-23T17:55:42.799Z,12.38
2022-09-23T17:58:46.056Z,12.27
2022-09-23T18:01:48.697Z,12.08
2022-09-23T18:04:51.387Z,11.92
2022-09-23T18:07:53.704Z,11.87
2022-09-23T18:10:56.384Z,11.71
2022-09-23T18:14:00.087Z,11.56
2022-09-23T18:17:02.726Z,11.54
2022-09-23T18:20:05.367Z,11.43
2022-09-23T18:23:08.010Z,11.40
2022-09-23T18:26:13.912Z,11.32
2022-09-23T18:29:16.993Z,11.26
2022-09-23T18:32:19.306Z,11.14
2022-09-23T18:35:21.834Z,11.08
2022-09-23T18:38:24.120Z,10.97
2022-09-23T18:41:27.180Z,10.92
2022-09-23T18:44:29.416Z,10.89
2022-09-23T18:47:50.911Z,10.81
2022-09-23T18:50:53.810Z,10.71
2022-09-23T18:53:59.942Z,10.65
2022-09-23T18:57:02.382Z,10.53
2022-09-23T19:00:06.009Z,10.46
2022-09-23T19:03:09.205Z,10.47
2022-09-23T19:06:14.336Z,10.40
2022-09-23T19:09:18.284Z,10.32
2022-09-23T19:12:22.542Z,10.20
2022-09-23T19:15:24.873Z,10.11
2022-09-23T19:18:28.974Z,10.02
2022-09-23T19:21:31.541Z,9.94
2022-09-23T19:24:34.075Z,9.82
2022-09-23T19:27:36.535Z,9.76
2022-09-23T19:30:39.350Z,9.68
2022-09-23T19:33:41.909Z,9.59
2022-09-23T19:36:45.738Z,9.52
2022-09-23T19:39:49.528Z,9.43
2022-09-23T19:42:54.083Z,9.37
2022-09-23T19:45:56.350Z,9.31
2022-09-23T19:49:00.199Z,9.33
2022-09-23T19:52:02.682Z,9.29
2022-09-23T19:55:06.578Z,9.21
2022-09-23T19:58:09.080Z,9.15
2022-09-23T20:01:11.762Z,9.10
2022-09-23T20:04:15.791Z,9.02
2022-09-23T20:07:19.277Z,8.95
2022-09-23T20:10:22.755Z,8.86
2022-09-23T20:13:25.060Z,8.87
2022-09-23T20:16:29.232Z,8.78
2022-09-23T20:19:31.480Z,8.71
2022-09-23T20:22:34.107Z,8.64
2022-09-23T20:25:59.584Z,8.60
2022-09-23T20:29:02.393Z,8.61
2022-09-23T20:32:04.733Z,8.58
2022-09-23T20:35:07.925Z,8.49
2022-09-23T20:38:10.566Z,8.52
2022-09-23T20:41:13.577Z,8.53
2022-09-23T20:44:15.915Z,8.43
2022-09-23T20:47:18.964Z,8.38
2022-09-23T20:50:21.316Z,8.32
2022-09-23T20:53:24.207Z,8.25
2022-09-23T20:56:27.637Z,8.20
2022-09-23T20:59:30.235Z,8.10
2022-09-23T21:02:32.531Z,8.03
2022-09-23T21:05:36.050Z,7.96
2022-09-23T21:08:39.344Z,7.91
2022-09-23T21:11:41.956Z,7.85
2022-09-23T21:14:44.169Z,7.79
2022-09-23T21:17:46.669Z,7.76
2022-09-23T21:20:55.516Z,7.70
2022-09-23T21:24:17.189Z,7.61
2022-09-23T21:27:20.777Z,7.54
2022-09-23T21:30:23.896Z,7.50
2022-09-23T21:33:26.502Z,7.50
2022-09-23T21:36:30.098Z,7.44
2022-09-23T21:39:32.392Z,7.39
2022-09-23T21:42:35.420Z,7.34
2022-09-23T21:45:37.776Z,7.33
2022-09-23T21:48:41.496Z,7.30
2022-09-23T21:51:43.842Z,7.25
2022-09-23T21:54:46.533Z,7.19
2022-09-23T21:57:48.804Z,7.19
2022-09-23T22:00:51.416Z,7.14
2022-09-23T22:03:58.470Z,7.13
2022-09-23T22:07:01.323Z,7.13
2022-09-23T22:10:05.899Z,7.11
2022-09-23T22:13:12.799Z,7.10
2022-09-23T22:16:16.760Z,7.13
2022-09-23T22:19:19.080Z,7.06
2022-09-23T22:22:21.711Z,6.98
2022-09-23T22:25:24.419Z,6.93
2022-09-23T22:28:46.059Z,6.86
2022-09-23T22:32:06.943Z,6.88
2022-09-23T22:35:14.128Z,6.78
2022-09-23T22:38:16.390Z,6.73
2022-09-23T22:41:22.479Z,6.66
2022-09-23T22:44:29.405Z,6.59
2022-09-23T22:47:38.761Z,6.57
2022-09-23T22:50:42.185Z,6.54
2022-09-23T22:53:44.669Z,6.53
2022-09-23T22:56:47.193Z,6.55
2022-09-23T22:59:50.016Z,6.51
2022-09-23T23:02:52.296Z,6.49
2022-09-23T23:05:57.606Z,6.45
2022-09-23T23:09:00.115Z,6.41
2022-09-23T23:12:02.738Z,6.40
2022-09-23T23:15:05.176Z,6.37
2022-09-23T23:18:07.761Z,6.36
2022-09-23T23:21:18.037Z,6.36
2022-09-23T23:24:21.834Z,6.36
2022-09-23T23:27:24.180Z,6.37
2022-09-23T23:30:26.732Z,6.37
2022-09-23T23:33:29.064Z,6.36
2022-09-23T23:36:31.734Z,6.33
2022-09-23T23:39:33.992Z,6.35
2022-09-23T23:42:36.487Z,6.32
2022-09-23T23:45:38.764Z,6.31
2022-09-23T23:48:45.378Z,6.28
2022-09-23T23:51:47.993Z,6.23
2022-09-23T23:54:50.849Z,6.21
2022-09-23T23:57:54.091Z,6.17
